Time;durP1;ratioP1;P1;durP2;ratioP2;P2;SDS_P1;SDS_P2;PMS_P1;PMS_P2;Temp;Humidity;BMP_temperature;BMP_pressure;BME280_temperature;BME280_humidity;BME280_pressure;Samples;Min_cycle;Max_cycle;Signal;HPM_P1;HPM_P2
2021/07/19 00:02:20;;;;;;;4.13;3.73;;;17.90;99.90;;;;;;6298049;22;20169;-90
2021/07/19 00:04:48;;;;;;;5.50;4.10;;;17.80;99.90;;;;;;6268650;22;20488;-90
2021/07/19 00:07:14;;;;;;;3.43;3.23;;;17.70;99.90;;;;;;6270320;22;20658;-92
2021/07/19 00:09:44;;;;;;;4.20;3.73;;;17.70;99.90;;;;;;6271730;22;20870;-90
2021/07/19 00:12:13;;;;;;;3.77;3.47;;;17.60;99.90;;;;;;6270962;22;20395;-91
2021/07/19 00:14:40;;;;;;;3.63;3.33;;;17.60;99.90;;;;;;6240026;22;20403;-91
2021/07/19 00:17:11;;;;;;;3.90;3.60;;;17.50;99.90;;;;;;6267281;22;20925;-91
2021/07/19 00:19:37;;;;;;;5.30;3.40;;;17.60;99.90;;;;;;6269157;22;20395;-90
2021/07/19 00:22:05;;;;;;;5.00;3.63;;;17.50;99.90;;;;;;6266483;22;20889;-91
2021/07/19 00:24:45;;;;;;;5.27;3.00;;;17.50;99.90;;;;;;6266149;22;20479;-90
2021/07/19 00:27:38;;;;;;;4.83;4.33;;;17.50;99.90;;;;;;6294863;22;20585;-92
2021/07/19 00:30:06;;;;;;;4.87;4.27;;;17.50;99.90;;;;;;6270091;22;20396;-91
2021/07/19 00:32:32;;;;;;;6.43;4.00;;;17.40;99.90;;;;;;6268530;22;20404;-91
2021/07/19 00:35:08;;;;;;;4.13;3.83;;;17.30;99.90;;;;;;6269750;22;20479;-91
2021/07/19 00:37:35;;;;;;;3.97;3.67;;;17.20;99.90;;;;;;6243545;22;20399;-92
2021/07/19 00:40:10;;;;;;;7.40;4.40;;;17.10;99.90;;;;;;6270440;22;20400;-91
2021/07/19 00:42:38;;;;;;;4.30;4.00;;;17.20;99.90;;;;;;6268133;22;20925;-91
2021/07/19 00:45:12;;;;;;;3.70;3.40;;;17.20;99.90;;;;;;6239154;22;20454;-92
2021/07/19 00:47:39;;;;;;;3.87;3.60;;;17.30;99.90;;;;;;6268018;22;20708;-90
2021/07/19 00:50:07;;;;;;;4.63;4.17;;;17.20;99.90;;;;;;6245937;22;20426;-90
2021/07/19 00:52:39;;;;;;;4.23;3.70;;;17.20;99.90;;;;;;6271966;22;20825;-89
2021/07/19 00:57:56;;;;;;;4.37;3.57;;;17.10;99.90;;;;;;6294363;22;20403;-91
2021/07/19 01:00:23;;;;;;;4.60;4.20;;;17.00;99.90;;;;;;6268100;22;20392;-90
2021/07/19 01:02:53;;;;;;;4.17;3.77;;;17.00;99.90;;;;;;6243386;22;20509;-89
2021/07/19 01:05:19;;;;;;;4.00;3.60;;;17.00;99.90;;;;;;6269371;22;20721;-87
2021/07/19 01:07:48;;;;;;;4.50;3.97;;;16.90;99.90;;;;;;6268294;22;20403;-87
2021/07/19 01:10:17;;;;;;;4.77;3.70;;;16.80;99.90;;;;;;6243235;22;20407;-87
2021/07/19 01:12:54;;;;;;;4.30;3.90;;;16.90;99.90;;;;;;6267058;22;20729;-87
2021/07/19 01:15:23;;;;;;;4.23;3.83;;;16.90;99.90;;;;;;6268991;22;20943;-87
2021/07/19 01:17:49;;;;;;;3.87;3.50;;;16.90;99.90;;;;;;6270582;22;20430;-87
2021/07/19 01:20:17;;;;;;;4.63;4.20;;;16.90;99.90;;;;;;6269815;22;20776;-87
2021/07/19 01:22:57;;;;;;;5.43;3.93;;;16.90;99.90;;;;;;6268765;22;20549;-87
2021/07/19 01:26:01;;;;;;;6.10;4.40;;;16.90;99.90;;;;;;6268927;22;20395;-87
2021/07/19 01:28:29;;;;;;;5.80;4.20;;;16.80;99.90;;;;;;6267691;22;20716;-87
2021/07/19 01:30:59;;;;;;;5.20;4.20;;;16.70;99.90;;;;;;6268923;22;20491;-87
2021/07/19 01:33:28;;;;;;;4.57;4.17;;;16.60;99.90;;;;;;6270075;22;20392;-87
2021/07/19 01:35:56;;;;;;;4.30;3.90;;;16.60;99.90;;;;;;6270269;22;20438;-87
2021/07/19 01:38:25;;;;;;;8.83;4.30;;;16.60;99.90;;;;;;6268830;22;20877;-87
2021/07/19 01:40:52;;;;;;;5.00;4.50;;;16.70;99.90;;;;;;6266554;22;20489;-87
2021/07/19 01:43:21;;;;;;;4.73;4.33;;;16.60;99.90;;;;;;6268796;22;20384;-87
2021/07/19 01:45:48;;;;;;;4.93;4.43;;;16.60;99.90;;;;;;6269630;22;20429;-87
2021/07/19 01:48:15;;;;;;;4.40;4.00;;;16.60;99.90;;;;;;6270127;22;20396;-86
2021/07/19 01:50:42;;;;;;;6.13;4.80;;;16.60;99.90;;;;;;6267083;22;20407;-86
2021/07/19 01:53:11;;;;;;;4.93;4.20;;;16.50;99.90;;;;;;6268656;22;20407;-86
2021/07/19 01:55:38;;;;;;;4.33;4.00;;;16.40;99.90;;;;;;6243948;22;20747;-86
2021/07/19 02:00:57;;;;;;;4.70;4.20;;;16.50;99.90;;;;;;6295198;22;20691;-85
2021/07/19 02:03:23;;;;;;;6.83;4.30;;;16.70;99.90;;;;;;6266001;22;20396;-85
2021/07/19 02:05:51;;;;;;;4.00;3.67;;;16.70;99.90;;;;;;6269000;22;20694;-85
2021/07/19 02:08:19;;;;;;;6.90;3.87;;;16.70;99.90;;;;;;6269252;22;20404;-85
2021/07/19 02:10:51;;;;;;;4.70;4.30;;;16.70;99.90;;;;;;6268347;22;20394;-85
2021/07/19 02:13:18;;;;;;;3.70;3.40;;;16.70;99.90;;;;;;6270008;22;20400;-86
2021/07/19 02:15:45;;;;;;;3.60;3.30;;;16.60;99.90;;;;;;6268242;22;20432;-85
2021/07/19 02:18:12;;;;;;;5.07;3.77;;;16.50;99.90;;;;;;6269556;22;20959;-85
2021/07/19 02:20:39;;;;;;;4.30;4.00;;;16.40;99.90;;;;;;6269734;22;20388;-86
2021/07/19 02:23:06;;;;;;;4.17;3.80;;;16.40;99.90;;;;;;6268647;22;20396;-85
2021/07/19 02:25:34;;;;;;;4.73;4.33;;;16.40;99.90;;;;;;6270139;22;20384;-86
2021/07/19 02:28:01;;;;;;;5.23;4.40;;;16.30;99.90;;;;;;6243663;22;20711;-86
2021/07/19 02:30:28;;;;;;;5.53;4.10;;;16.30;99.90;;;;;;6267106;22;20388;-85
2021/07/19 02:32:59;;;;;;;5.27;4.87;;;16.20;99.90;;;;;;6270064;22;20392;-86
2021/07/19 02:35:26;;;;;;;4.80;4.27;;;16.10;99.90;;;;;;6268750;22;20459;-86
2021/07/19 02:37:56;;;;;;;4.50;4.10;;;16.10;99.90;;;;;;6267140;22;20396;-86
2021/07/19 02:40:24;;;;;;;4.80;4.30;;;16.00;99.90;;;;;;6268183;22;20462;-86
2021/07/19 02:43:04;;;;;;;5.40;4.53;;;16.10;99.90;;;;;;6268926;22;20458;-86
2021/07/19 02:45:40;;;;;;;4.40;4.00;;;16.10;99.90;;;;;;6270360;22;20435;-86
2021/07/19 02:48:12;;;;;;;5.40;4.90;;;16.10;99.90;;;;;;6296754;22;20379;-86
2021/07/19 02:50:42;;;;;;;6.60;4.93;;;16.20;99.90;;;;;;6267049;22;20727;-86
2021/07/19 02:53:11;;;;;;;6.80;4.60;;;16.20;99.90;;;;;;6268755;22;20408;-86
2021/07/19 02:55:39;;;;;;;5.20;4.73;;;16.20;99.90;;;;;;6260948;22;20427;-86
2021/07/19 02:58:06;;;;;;;5.47;4.70;;;16.20;99.90;;;;;;6265087;22;21215;-86
2021/07/19 03:00:34;;;;;;;4.87;4.40;;;16.20;99.90;;;;;;6264204;22;20387;-86
2021/07/19 03:03:06;;;;;;;5.73;5.23;;;16.30;99.90;;;;;;6266827;22;20403;-86
2021/07/19 03:05:37;;;;;;;5.90;4.60;;;16.30;99.90;;;;;;6267063;22;20897;-85
2021/07/19 03:08:05;;;;;;;5.50;4.97;;;16.30;99.90;;;;;;6268147;22;20407;-85
2021/07/19 03:10:34;;;;;;;6.87;5.40;;;16.30;99.90;;;;;;6266254;22;20384;-85
2021/07/19 03:13:16;;;;;;;5.60;5.10;;;16.30;99.90;;;;;;6268148;22;20384;-86
2021/07/19 03:15:46;;;;;;;5.73;5.23;;;16.30;99.90;;;;;;6292914;22;20454;-85
2021/07/19 03:18:12;;;;;;;5.97;5.03;;;16.20;99.90;;;;;;6268344;22;20634;-85
2021/07/19 03:20:42;;;;;;;6.27;4.90;;;16.20;99.90;;;;;;6240955;22;20759;-86
2021/07/19 03:23:16;;;;;;;5.93;4.67;;;16.20;99.90;;;;;;6268124;22;20404;-86
2021/07/19 03:25:45;;;;;;;4.90;4.47;;;16.10;99.90;;;;;;6266469;22;20951;-86
2021/07/19 03:28:13;;;;;;;5.77;5.10;;;16.10;99.90;;;;;;6266121;22;20392;-87
2021/07/19 03:30:40;;;;;;;5.73;4.77;;;16.10;99.90;;;;;;6266327;22;20384;-86
2021/07/19 03:33:07;;;;;;;5.17;4.77;;;16.10;99.90;;;;;;6267326;22;20885;-86
2021/07/19 03:35:33;;;;;;;7.03;5.30;;;16.20;99.90;;;;;;6264850;22;20431;-86
2021/07/19 03:38:00;;;;;;;5.93;5.33;;;16.30;99.90;;;;;;6267649;22;20396;-86
2021/07/19 03:40:27;;;;;;;5.30;4.80;;;16.30;99.90;;;;;;6266523;22;20771;-86
2021/07/19 03:42:57;;;;;;;6.53;5.07;;;16.30;99.90;;;;;;6237705;22;20388;-86
2021/07/19 03:45:24;;;;;;;8.40;4.53;;;16.30;99.90;;;;;;6267131;22;20403;-86
2021/07/19 03:47:50;;;;;;;5.43;4.57;;;16.20;99.90;;;;;;6266753;22;20427;-86
2021/07/19 03:50:17;;;;;;;6.93;5.20;;;16.10;99.90;;;;;;6266990;22;20407;-86
2021/07/19 03:52:46;;;;;;;5.80;5.30;;;16.10;99.90;;;;;;6266748;22;20439;-86
2021/07/19 03:55:18;;;;;;;8.87;7.93;;;16.10;99.90;;;;;;6242377;22;20404;-86
2021/07/19 03:57:45;;;;;;;8.03;6.53;;;15.90;99.90;;;;;;6241387;22;20441;-87
2021/07/19 04:00:15;;;;;;;5.90;5.37;;;15.80;99.90;;;;;;6267375;22;20388;-87
2021/07/19 04:02:53;;;;;;;5.47;4.97;;;15.80;99.90;;;;;;6268695;22;20475;-86
2021/07/19 04:05:27;;;;;;;5.77;5.13;;;15.80;99.90;;;;;;6236549;22;20452;-87
2021/07/19 04:07:57;;;;;;;5.70;5.20;;;15.90;99.90;;;;;;6216583;22;20408;-87
2021/07/19 04:10:26;;;;;;;5.80;5.20;;;15.90;99.90;;;;;;6269455;22;20398;-86
2021/07/19 04:12:52;;;;;;;6.80;5.60;;;15.90;99.90;;;;;;6268317;22;20913;-86
2021/07/19 04:15:18;;;;;;;5.73;5.17;;;15.90;99.90;;;;;;6244875;22;20423;-87
2021/07/19 04:17:46;;;;;;;6.90;5.10;;;15.90;99.90;;;;;;6295690;22;20388;-87
2021/07/19 04:20:17;;;;;;;6.27;5.30;;;15.90;99.90;;;;;;6268833;22;20506;-87
2021/07/19 04:22:43;;;;;;;7.10;4.90;;;15.90;99.90;;;;;;6266436;22;20958;-86
2021/07/19 04:25:11;;;;;;;5.83;4.90;;;16.00;99.90;;;;;;6266606;22;20398;-86
2021/07/19 04:27:40;;;;;;;6.10;4.90;;;16.00;99.90;;;;;;6266959;22;20655;-86
2021/07/19 04:30:07;;;;;;;5.83;5.13;;;16.00;99.90;;;;;;6268856;22;20811;-87
2021/07/19 04:32:34;;;;;;;6.93;5.27;;;16.10;99.90;;;;;;6268765;22;20436;-87
2021/07/19 04:35:01;;;;;;;7.67;5.90;;;16.20;99.90;;;;;;6267689;22;20388;-88
2021/07/19 04:37:34;;;;;;;7.27;6.57;;;16.20;99.90;;;;;;6267136;22;20481;-86
2021/07/19 04:40:01;;;;;;;7.10;6.00;;;16.20;99.90;;;;;;6243970;22;20797;-85
2021/07/19 04:42:30;;;;;;;6.40;5.80;;;16.10;99.90;;;;;;6295455;22;20399;-85
2021/07/19 04:45:12;;;;;;;6.30;5.53;;;16.10;99.90;;;;;;6291234;22;20392;-86
2021/07/19 04:47:58;;;;;;;7.50;5.70;;;16.30;99.90;;;;;;6287768;22;20403;-87
2021/07/19 04:50:27;;;;;;;8.50;5.73;;;16.40;99.90;;;;;;6269496;22;20399;-87
2021/07/19 04:52:54;;;;;;;7.90;5.90;;;16.40;99.90;;;;;;6266784;22;20746;-87
2021/07/19 04:55:28;;;;;;;6.60;5.90;;;16.50;99.90;;;;;;6268263;22;20537;-87
2021/07/19 04:58:04;;;;;;;6.67;5.70;;;16.60;99.90;;;;;;6291763;22;20403;-88
2021/07/19 05:00:39;;;;;;;7.30;5.70;;;16.60;99.90;;;;;;6268742;22;20396;-87
2021/07/19 05:03:09;;;;;;;7.37;6.67;;;16.60;99.90;;;;;;6270176;22;20731;-86
2021/07/19 05:05:39;;;;;;;9.20;6.20;;;16.60;99.90;;;;;;6266294;22;20403;-86
2021/07/19 05:08:07;;;;;;;8.43;6.77;;;16.60;99.90;;;;;;6270593;22;20479;-87
2021/07/19 05:10:35;;;;;;;6.30;5.70;;;16.70;99.90;;;;;;6271242;22;20765;-87
2021/07/19 05:13:01;;;;;;;9.17;6.27;;;16.80;99.90;;;;;;6268450;22;20396;-87
2021/07/19 05:15:27;;;;;;;6.50;5.80;;;16.90;99.90;;;;;;6274145;22;20432;-87
2021/07/19 05:17:56;;;;;;;8.37;6.07;;;17.10;99.90;;;;;;6287597;22;20407;-89
2021/07/19 05:20:22;;;;;;;14.30;6.27;;;17.20;99.90;;;;;;6269810;22;20384;-88
2021/07/19 05:22:50;;;;;;;8.03;6.60;;;17.40;99.90;;;;;;6271830;22;20736;-87
2021/07/19 05:25:24;;;;;;;11.57;6.43;;;17.50;99.90;;;;;;6270167;22;20384;-84
2021/07/19 05:28:05;;;;;;;6.93;5.97;;;17.50;99.90;;;;;;6270470;22;20481;-85
2021/07/19 05:30:31;;;;;;;7.20;6.60;;;17.60;99.90;;;;;;6270285;22;20647;-85
2021/07/19 05:33:00;;;;;;;7.20;6.50;;;17.60;99.90;;;;;;6270104;22;20396;-84
2021/07/19 05:35:27;;;;;;;8.37;6.83;;;17.70;99.90;;;;;;6296399;22;20479;-85
2021/07/19 05:37:53;;;;;;;8.97;5.83;;;17.80;99.90;;;;;;6297996;22;20384;-85
2021/07/19 05:40:21;;;;;;;7.83;6.23;;;17.90;99.90;;;;;;6269279;22;20189;-85
2021/07/19 05:42:49;;;;;;;6.60;5.90;;;18.00;99.90;;;;;;6293315;22;20166;-85
2021/07/19 05:45:18;;;;;;;6.67;5.97;;;18.00;99.90;;;;;;6266513;22;20450;-85
2021/07/19 05:47:45;;;;;;;7.57;6.03;;;18.10;99.90;;;;;;6270082;22;20411;-85
2021/07/19 05:50:14;;;;;;;8.23;6.57;;;18.10;99.90;;;;;;6267287;22;20392;-85
2021/07/19 05:52:40;;;;;;;9.93;6.60;;;18.10;99.90;;;;;;6266191;22;20416;-84
2021/07/19 05:55:11;;;;;;;9.80;6.37;;;18.20;99.90;;;;;;6295185;22;20692;-84
2021/07/19 05:57:37;;;;;;;7.23;6.23;;;18.40;99.90;;;;;;6243498;22;20885;-84
2021/07/19 06:00:11;;;;;;;6.93;6.10;;;18.50;99.90;;;;;;6269933;22;20395;-84
2021/07/19 06:02:37;;;;;;;7.03;6.33;;;18.50;99.90;;;;;;6241776;22;20452;-86
2021/07/19 06:05:14;;;;;;;7.27;6.67;;;18.50;99.90;;;;;;6268939;22;20396;-85
2021/07/19 06:07:40;;;;;;;8.03;7.17;;;18.60;99.90;;;;;;6269090;22;20422;-85
2021/07/19 06:10:25;;;;;;;10.00;7.57;;;18.60;99.90;;;;;;6268843;22;20412;-86
2021/07/19 06:12:52;;;;;;;9.37;7.17;;;18.70;99.90;;;;;;6265756;22;20395;-85
2021/07/19 06:15:18;;;;;;;11.37;6.90;;;18.90;99.90;;;;;;6269204;22;20418;-85
2021/07/19 06:17:54;;;;;;;7.73;7.03;;;18.70;99.90;;;;;;6268159;22;20453;-85
2021/07/19 06:20:31;;;;;;;7.37;6.57;;;18.60;99.90;;;;;;6244696;22;21103;-85
2021/07/19 06:23:02;;;;;;;7.63;6.87;;;18.60;99.90;;;;;;6271381;22;20766;-85
2021/07/19 06:25:43;;;;;;;8.20;6.80;;;18.70;99.90;;;;;;6243517;22;20423;-87
2021/07/19 06:28:10;;;;;;;7.77;6.60;;;18.70;99.90;;;;;;6267571;22;20402;-86
2021/07/19 06:30:39;;;;;;;7.00;6.30;;;18.70;99.90;;;;;;6262958;22;20414;-86
2021/07/19 06:33:05;;;;;;;8.77;7.40;;;18.70;99.90;;;;;;6267959;22;20396;-86
2021/07/19 06:35:31;;;;;;;7.40;6.80;;;18.80;99.90;;;;;;6243608;22;20436;-86
2021/07/19 06:38:02;;;;;;;7.23;6.47;;;19.00;99.90;;;;;;6294111;22;20889;-85
2021/07/19 06:40:39;;;;;;;9.50;7.50;;;19.30;99.90;;;;;;6291588;22;20445;-86
2021/07/19 06:43:06;;;;;;;8.83;6.93;;;19.50;99.90;;;;;;6295206;22;20441;-86
2021/07/19 06:45:33;;;;;;;8.13;6.20;;;19.60;99.90;;;;;;6267701;22;20474;-84
2021/07/19 06:48:09;;;;;;;10.47;6.70;;;19.70;99.90;;;;;;6267960;22;20797;-85
2021/07/19 06:50:35;;;;;;;6.47;5.90;;;19.90;99.90;;;;;;6267010;22;20471;-86
2021/07/19 06:53:13;;;;;;;7.27;6.53;;;20.00;99.90;;;;;;6267418;22;20458;-86
2021/07/19 06:55:40;;;;;;;7.50;6.80;;;20.10;99.90;;;;;;6261111;22;20501;-85
2021/07/19 06:58:07;;;;;;;9.47;5.97;;;20.00;99.90;;;;;;6266754;22;20403;-85
2021/07/19 07:00:33;;;;;;;6.97;6.37;;;20.00;99.90;;;;;;6267038;22;20384;-86
2021/07/19 07:03:06;;;;;;;7.73;6.70;;;19.80;99.90;;;;;;6267815;22;20440;-87
2021/07/19 07:05:33;;;;;;;7.17;6.47;;;19.90;99.90;;;;;;6268607;22;20487;-86
2021/07/19 07:08:00;;;;;;;6.90;6.00;;;20.00;99.90;;;;;;6267319;22;20461;-83
2021/07/19 07:10:30;;;;;;;6.53;5.93;;;20.20;99.90;;;;;;6243587;22;20528;-85
2021/07/19 07:13:24;;;;;;;8.30;6.20;;;20.40;99.90;;;;;;6268940;22;20384;-90
2021/07/19 07:15:49;;;;;;;6.10;5.60;;;20.50;99.90;;;;;;6239613;22;20431;-85
2021/07/19 07:18:16;;;;;;;7.27;6.57;;;20.60;99.90;;;;;;6267546;22;20731;-86
2021/07/19 07:20:44;;;;;;;6.07;5.47;;;20.70;99.90;;;;;;6268586;22;20203;-86
2021/07/19 07:23:10;;;;;;;5.90;5.40;;;20.80;99.90;;;;;;6268060;22;20747;-86
2021/07/19 07:25:37;;;;;;;7.30;5.30;;;21.00;99.90;;;;;;6266129;22;20388;-85
2021/07/19 07:28:03;;;;;;;6.20;5.67;;;21.10;99.90;;;;;;6268022;22;20419;-86
2021/07/19 07:30:29;;;;;;;6.80;6.20;;;20.90;99.90;;;;;;6267572;22;20392;-85
2021/07/19 07:33:00;;;;;;;6.00;5.50;;;21.00;99.90;;;;;;6241844;22;20219;-87
2021/07/19 07:35:27;;;;;;;6.60;5.90;;;21.20;99.90;;;;;;6268549;22;20392;-85
2021/07/19 07:37:53;;;;;;;6.87;6.20;;;21.20;99.90;;;;;;6270084;22;20499;-86
2021/07/19 07:40:19;;;;;;;7.73;6.93;;;21.20;99.90;;;;;;6271140;22;20416;-85
2021/07/19 07:42:45;;;;;;;7.37;6.60;;;20.90;99.90;;;;;;6245290;22;20172;-85
2021/07/19 07:45:15;;;;;;;6.40;5.80;;;20.60;99.90;;;;;;6244104;22;20740;-86
2021/07/19 07:47:42;;;;;;;7.40;6.70;;;20.80;99.90;;;;;;6244166;22;20404;-86
2021/07/19 07:50:09;;;;;;;6.40;5.90;;;21.00;99.90;;;;;;6269866;22;20396;-86
2021/07/19 07:52:35;;;;;;;6.20;5.70;;;21.20;99.90;;;;;;6245100;22;20419;-86
2021/07/19 07:55:05;;;;;;;6.00;5.47;;;21.50;99.90;;;;;;6270096;22;20395;-86
2021/07/19 07:57:31;;;;;;;5.47;5.07;;;21.90;99.90;;;;;;6244892;22;20478;-86
2021/07/19 07:59:58;;;;;;;6.33;5.73;;;22.00;99.90;;;;;;6269703;22;20440;-86
2021/07/19 08:02:25;;;;;;;6.90;6.20;;;22.10;99.90;;;;;;6294336;22;20408;-86
2021/07/19 08:04:52;;;;;;;6.67;5.97;;;22.30;99.90;;;;;;6268876;22;20392;-87
2021/07/19 08:07:19;;;;;;;6.70;6.10;;;22.30;99.90;;;;;;6265655;22;20392;-88
2021/07/19 08:09:54;;;;;;;6.73;6.00;;;22.10;99.90;;;;;;6297820;22;20415;-87
2021/07/19 08:12:23;;;;;;;5.70;5.20;;;22.10;99.90;;;;;;6299137;22;20464;-86
2021/07/19 08:14:49;;;;;;;5.97;5.37;;;22.40;99.90;;;;;;6270812;22;20483;-86
2021/07/19 08:17:19;;;;;;;6.03;5.43;;;22.70;99.90;;;;;;6271245;22;20554;-86
2021/07/19 08:19:46;;;;;;;5.90;5.33;;;22.90;99.90;;;;;;6271421;22;20600;-86
2021/07/19 08:22:13;;;;;;;6.43;5.83;;;22.90;99.90;;;;;;6245002;22;20518;-85
2021/07/19 08:24:44;;;;;;;6.57;5.97;;;22.90;99.90;;;;;;6247108;22;20901;-86
2021/07/19 08:27:10;;;;;;;5.83;5.33;;;22.50;99.90;;;;;;6271149;22;20424;-87
2021/07/19 08:29:38;;;;;;;5.93;5.43;;;22.80;99.90;;;;;;6299516;22;20874;-86
2021/07/19 08:32:07;;;;;;;5.90;5.40;;;23.10;99.90;;;;;;6272903;22;20391;-86
2021/07/19 08:34:33;;;;;;;6.77;6.13;;;23.30;99.90;;;;;;6272247;22;20276;-87
2021/07/19 08:37:02;;;;;;;6.30;5.70;;;23.60;99.90;;;;;;6271328;22;20541;-87
2021/07/19 08:39:28;;;;;;;5.73;5.23;;;23.70;99.90;;;;;;6245632;22;20165;-86
2021/07/19 08:41:54;;;;;;;6.07;5.57;;;23.80;99.90;;;;;;6272034;22;20399;-86
2021/07/19 08:44:20;;;;;;;6.67;6.07;;;23.90;99.90;;;;;;6271223;22;20486;-86
2021/07/19 08:46:48;;;;;;;6.70;5.93;;;23.30;99.90;;;;;;6269628;22;20427;-85
2021/07/19 08:49:16;;;;;;;6.63;6.03;;;23.00;99.90;;;;;;6270217;22;20165;-86
2021/07/19 08:51:44;;;;;;;5.90;5.40;;;22.90;99.90;;;;;;6270995;22;20868;-86
2021/07/19 08:54:13;;;;;;;6.17;5.63;;;22.90;99.90;;;;;;6268412;22;20402;-86
2021/07/19 08:56:44;;;;;;;5.87;5.20;;;23.00;99.90;;;;;;6291719;22;20462;-86
2021/07/19 08:59:17;;;;;;;6.23;5.63;;;23.20;99.90;;;;;;6270294;22;20402;-86
2021/07/19 09:01:47;;;;;;;7.70;6.67;;;23.20;99.90;;;;;;6271583;22;20398;-87
2021/07/19 09:04:18;;;;;;;8.00;6.63;;;23.30;99.90;;;;;;6270327;22;20407;-87
2021/07/19 09:06:45;;;;;;;6.53;5.93;;;23.80;99.90;;;;;;6270187;22;20486;-86
2021/07/19 09:09:13;;;;;;;5.50;5.00;;;24.20;99.90;;;;;;6261324;22;20423;-85
2021/07/19 09:11:51;;;;;;;5.60;5.10;;;24.30;99.90;;;;;;6296777;22;20438;-85
2021/07/19 09:14:20;;;;;;;6.17;5.50;;;24.30;99.90;;;;;;6269545;22;20165;-84
2021/07/19 09:16:48;;;;;;;5.77;5.17;;;24.20;99.90;;;;;;6271747;22;20577;-85
2021/07/19 09:19:24;;;;;;;7.20;5.40;;;24.50;99.90;;;;;;6298347;22;20718;-85
2021/07/19 09:21:56;;;;;;;6.57;6.07;;;24.70;99.90;;;;;;6243499;22;20430;-85
2021/07/19 09:24:25;;;;;;;6.07;5.47;;;24.80;99.90;;;;;;6268550;22;20400;-84
2021/07/19 09:26:53;;;;;;;5.60;4.90;;;24.90;99.90;;;;;;6295015;22;20364;-84
2021/07/19 09:29:23;;;;;;;6.20;5.70;;;25.30;99.90;;;;;;6264043;22;20850;-84
2021/07/19 09:31:58;;;;;;;52.13;27.63;;;25.40;99.90;;;;;;6244847;22;20710;-85
2021/07/19 09:34:33;;;;;;;6.53;5.93;;;25.40;99.90;;;;;;6271386;22;20412;-92
2021/07/19 09:37:17;;;;;;;9.77;7.10;;;24.90;99.90;;;;;;6272601;22;20477;-95
2021/07/19 09:39:50;;;;;;;5.27;4.87;;;25.10;99.90;;;;;;6298838;22;20892;-91
2021/07/19 09:42:31;;;;;;;7.27;5.53;;;25.20;99.90;;;;;;6270195;22;20397;-93
2021/07/19 09:45:01;;;;;;;4.93;4.43;;;24.90;99.90;;;;;;6298371;22;20384;-93
2021/07/19 09:47:45;;;;;;;9.80;7.40;;;25.60;99.90;;;;;;6268388;22;20490;-93
2021/07/19 09:50:19;;;;;;;4.73;4.33;;;25.80;99.90;;;;;;6268712;22;20392;-93
2021/07/19 09:52:58;;;;;;;5.20;4.90;;;25.70;99.70;;;;;;6297785;22;20866;-95
2021/07/19 09:55:26;;;;;;;5.10;4.67;;;25.40;99.90;;;;;;6297842;22;20384;-94
2021/07/19 09:58:04;;;;;;;5.80;5.30;;;25.80;99.90;;;;;;6269544;22;20885;-94
2021/07/19 10:00:37;;;;;;;6.17;5.50;;;26.40;99.90;;;;;;6271144;22;20427;-93
2021/07/19 10:03:19;;;;;;;4.77;4.47;;;26.70;99.90;;;;;;6270503;22;20403;-93
2021/07/19 10:05:48;;;;;;;6.10;5.50;;;27.20;99.30;;;;;;6271994;22;20396;-94
2021/07/19 10:08:23;;;;;;;6.20;5.60;;;26.70;98.50;;;;;;6271525;22;20384;-95
2021/07/19 10:10:55;;;;;;;8.30;6.40;;;25.90;99.60;;;;;;6300858;22;20395;-91
2021/07/19 10:13:33;;;;;;;6.00;5.10;;;25.10;99.90;;;;;;6271797;22;20429;-91
2021/07/19 10:16:02;;;;;;;5.70;5.20;;;24.90;99.90;;;;;;6263173;22;20435;-91
2021/07/19 10:18:34;;;;;;;6.70;6.00;;;24.90;99.90;;;;;;6268400;22;20396;-90
2021/07/19 10:21:00;;;;;;;7.70;5.90;;;25.50;99.90;;;;;;6269722;22;20877;-91
2021/07/19 10:23:41;;;;;;;5.83;5.43;;;26.10;99.60;;;;;;6296771;22;20438;-92
2021/07/19 10:26:19;;;;;;;5.23;4.73;;;26.40;98.50;;;;;;6269664;22;20384;-91
2021/07/19 10:28:51;;;;;;;6.33;4.87;;;26.80;97.20;;;;;;6268295;22;20431;-90
2021/07/19 10:31:21;;;;;;;6.27;5.77;;;26.80;96.60;;;;;;6270616;22;20874;-90
2021/07/19 10:33:53;;;;;;;6.37;5.10;;;26.30;99.40;;;;;;6269692;22;20392;-92
2021/07/19 10:39:38;;;;;;;8.80;5.03;;;26.90;98.50;;;;;;6299042;22;20384;-92
2021/07/19 10:42:09;;;;;;;11.50;5.47;;;26.10;97.10;;;;;;6270980;22;20400;-90
2021/07/19 11:24:39;;;;;;;4.70;4.30;;;27.10;96.20;;;;;;6295357;22;20749;-91
2021/07/19 11:27:08;;;;;;;5.00;4.60;;;27.50;96.60;;;;;;6300137;22;20410;-94
2021/07/19 11:29:37;;;;;;;4.10;3.80;;;28.00;95.90;;;;;;6275911;22;20411;-91
2021/07/19 11:32:07;;;;;;;4.83;4.40;;;28.10;92.30;;;;;;6300533;22;20566;-90
2021/07/19 11:34:34;;;;;;;4.50;4.10;;;27.30;91.90;;;;;;6297841;22;20395;-92
2021/07/19 11:37:02;;;;;;;8.20;5.33;;;26.90;92.90;;;;;;6326228;22;20909;-91
2021/07/19 11:39:29;;;;;;;4.87;4.37;;;26.70;93.60;;;;;;6301966;22;20442;-94
2021/07/19 11:42:02;;;;;;;5.53;4.97;;;26.60;95.00;;;;;;6274849;22;20417;-92
2021/07/19 11:44:39;;;;;;;4.20;3.90;;;26.90;95.40;;;;;;6300219;22;20398;-92
2021/07/19 11:47:06;;;;;;;4.23;3.93;;;27.60;94.30;;;;;;6300836;22;20393;-91
2021/07/19 11:49:36;;;;;;;4.57;4.27;;;27.90;90.90;;;;;;6301457;22;20402;-93
2021/07/19 11:52:05;;;;;;;5.10;4.60;;;27.80;90.80;;;;;;6300747;22;20869;-94
2021/07/19 11:54:33;;;;;;;4.47;4.17;;;28.10;92.10;;;;;;6300722;22;20714;-91
2021/07/19 11:56:59;;;;;;;5.20;4.70;;;27.80;91.80;;;;;;6276184;22;20480;-91
2021/07/19 11:59:27;;;;;;;4.60;4.30;;;27.90;92.70;;;;;;6299673;22;20819;-92
2021/07/19 12:02:02;;;;;;;5.10;4.70;;;27.90;93.10;;;;;;6301166;22;20201;-92
2021/07/19 12:04:42;;;;;;;5.07;3.87;;;27.60;91.60;;;;;;6319475;22;20395;-92
2021/07/19 12:07:13;;;;;;;4.40;4.00;;;28.00;92.60;;;;;;6300454;22;20406;-91
2021/07/19 12:09:40;;;;;;;3.73;3.43;;;28.70;92.30;;;;;;6301762;22;20399;-92
2021/07/19 12:12:07;;;;;;;4.53;4.07;;;29.10;90.30;;;;;;6297641;22;20861;-92
2021/07/19 12:14:33;;;;;;;4.40;4.00;;;28.90;89.20;;;;;;6303272;22;20399;-93
2021/07/19 12:17:00;;;;;;;4.27;3.87;;;28.50;87.00;;;;;;6302521;22;20501;-91
2021/07/19 12:19:28;;;;;;;4.53;4.17;;;27.90;90.60;;;;;;6302314;22;20161;-92
2021/07/19 12:21:57;;;;;;;4.40;4.00;;;27.50;89.10;;;;;;6301685;22;20442;-92
2021/07/19 12:24:27;;;;;;;6.47;5.97;;;27.80;90.40;;;;;;6304987;22;20478;-93
2021/07/19 12:27:05;;;;;;;6.37;4.60;;;28.40;91.20;;;;;;6303370;22;20461;-94
2021/07/19 12:29:41;;;;;;;4.13;3.83;;;28.70;89.00;;;;;;6304219;22;20473;-93
2021/07/19 12:32:10;;;;;;;3.70;3.40;;;29.50;88.70;;;;;;6303145;22;20471;-93
2021/07/19 12:34:40;;;;;;;3.80;3.50;;;29.20;85.40;;;;;;6304371;22;20406;-92
2021/07/19 12:37:15;;;;;;;5.97;4.47;;;28.90;86.80;;;;;;6301080;22;21072;-90
2021/07/19 12:39:42;;;;;;;6.00;4.57;;;29.00;85.80;;;;;;6303923;22;20888;-88
2021/07/19 12:42:17;;;;;;;3.93;3.70;;;28.90;85.30;;;;;;6331481;22;20394;-92
2021/07/19 12:44:53;;;;;;;4.57;4.17;;;29.30;85.90;;;;;;6303791;22;20403;-91
2021/07/19 12:47:22;;;;;;;3.77;3.47;;;29.70;87.50;;;;;;6302011;22;20442;-94
2021/07/19 12:49:49;;;;;;;4.27;3.87;;;29.30;83.50;;;;;;6275353;22;20467;-90
2021/07/19 12:52:30;;;;;;;4.00;3.40;;;28.70;84.70;;;;;;6298962;22;20395;-90
2021/07/19 12:55:08;;;;;;;4.17;3.87;;;28.40;83.50;;;;;;6301664;22;20433;-90
2021/07/19 12:57:41;;;;;;;4.30;3.90;;;28.70;85.20;;;;;;6301114;22;20442;-89
2021/07/19 13:00:12;;;;;;;3.97;3.30;;;29.20;85.40;;;;;;6299216;22;20826;-88
2021/07/19 13:02:39;;;;;;;4.30;3.47;;;29.60;84.40;;;;;;6299049;22;20890;-89
2021/07/19 13:05:10;;;;;;;3.80;3.40;;;29.50;82.50;;;;;;6300460;22;20398;-88
2021/07/19 13:07:37;;;;;;;5.30;4.50;;;28.30;82.90;;;;;;6299198;22;20395;-90
2021/07/19 13:10:23;;;;;;;6.93;3.57;;;28.00;86.00;;;;;;6300919;22;20405;-89
2021/07/19 13:13:01;;;;;;;3.47;3.17;;;28.90;86.30;;;;;;6329226;22;20387;-89
2021/07/19 13:15:32;;;;;;;4.50;3.37;;;29.10;80.20;;;;;;6300720;22;20390;-89
2021/07/19 13:18:05;;;;;;;3.40;3.10;;;29.80;83.20;;;;;;6301038;22;20399;-90
2021/07/19 13:20:31;;;;;;;5.63;3.23;;;30.10;78.70;;;;;;6300558;22;20438;-91
2021/07/19 13:23:23;;;;;;;5.13;3.00;;;29.60;78.20;;;;;;6301432;22;20399;-91
2021/07/19 13:25:50;;;;;;;4.77;3.30;;;29.60;77.10;;;;;;6299763;22;20798;-91
2021/07/19 13:28:25;;;;;;;3.47;3.17;;;28.80;79.20;;;;;;6301936;22;20781;-91
2021/07/19 13:30:53;;;;;;;3.10;2.37;;;29.50;82.80;;;;;;6304030;22;20482;-90
2021/07/19 13:33:26;;;;;;;2.73;2.53;;;29.50;75.80;;;;;;6317568;22;20399;-88
2021/07/19 13:35:52;;;;;;;2.43;1.60;;;29.30;73.80;;;;;;6318008;22;20441;-89
2021/07/19 13:38:18;;;;;;;2.37;1.60;;;29.30;65.80;;;;;;6316011;22;20725;-90
2021/07/19 13:40:47;;;;;;;4.07;1.97;;;28.90;62.00;;;;;;6305489;22;20395;-89
2021/07/19 13:43:21;;;;;;;2.10;2.00;;;29.80;68.40;;;;;;6296083;22;20183;-88
2021/07/19 13:45:57;;;;;;;3.17;2.23;;;31.20;68.10;;;;;;6299061;22;20402;-90
2021/07/19 13:48:26;;;;;;;3.40;2.50;;;32.60;68.90;;;;;;6298737;22;20417;-92
2021/07/19 14:32:31;;;;;;;3.90;2.90;;;37.60;40.70;;;;;;6266011;22;20182;-96